createdAt,value
2023-03-19T00:00:20.876Z,10.50
2023-03-19T00:02:50.106Z,10.45
2023-03-19T00:05:13.278Z,11.43
2023-03-19T00:07:36.297Z,11.52
2023-03-19T00:09:59.412Z,10.17
2023-03-19T00:12:22.516Z,9.35
2023-03-19T00:14:45.794Z,9.50
2023-03-19T00:17:08.830Z,9.90
2023-03-19T00:19:32.035Z,9.77
2023-03-19T00:21:55.241Z,9.70
2023-03-19T00:24:18.130Z,9.52
2023-03-19T00:26:41.256Z,10.02
2023-03-19T00:29:04.842Z,9.23
2023-03-19T00:31:29.083Z,8.80
2023-03-19T00:33:52.235Z,9.30
2023-03-19T00:36:16.507Z,9.95
2023-03-19T00:38:40.454Z,10.05
2023-03-19T00:41:05.398Z,10.27
2023-03-19T00:43:28.434Z,10.25
2023-03-19T00:45:51.840Z,10.77
2023-03-19T00:48:15.019Z,10.35
2023-03-19T00:50:38.243Z,9.80
2023-03-19T00:53:01.719Z,10.30
2023-03-19T00:55:25.693Z,10.30
2023-03-19T00:57:48.466Z,10.30
2023-03-19T01:00:12.219Z,10.35
2023-03-19T01:02:35.331Z,10.57
2023-03-19T01:04:58.239Z,10.82
2023-03-19T01:07:21.445Z,10.48
2023-03-19T01:12:20.986Z,10.38
2023-03-19T01:14:43.607Z,10.60
2023-03-19T01:17:06.837Z,11.13
2023-03-19T01:19:30.377Z,10.30
2023-03-19T01:21:53.387Z,10.43
2023-03-19T01:24:18.338Z,10.68
2023-03-19T01:26:46.552Z,10.38
2023-03-19T01:29:23.598Z,10.13
2023-03-19T01:31:46.352Z,11.05
2023-03-19T01:34:29.026Z,10.27
2023-03-19T01:36:57.937Z,10.02
2023-03-19T01:39:27.738Z,10.70
2023-03-19T01:41:51.917Z,11.02
2023-03-19T01:44:40.721Z,10.95
2023-03-19T01:47:31.517Z,10.03
2023-03-19T01:50:54.336Z,10.38
2023-03-19T01:53:29.985Z,11.13
2023-03-19T01:56:18.806Z,10.55
2023-03-19T01:58:59.167Z,10.95
2023-03-19T02:02:02.512Z,11.10
2023-03-19T02:04:27.484Z,10.68
2023-03-19T02:06:51.329Z,10.50
2023-03-19T02:09:15.644Z,11.68
2023-03-19T02:11:38.835Z,11.57
2023-03-19T02:14:01.869Z,11.57
2023-03-19T02:16:24.845Z,11.07
2023-03-19T02:18:48.965Z,10.90
2023-03-19T02:21:16.376Z,10.60
2023-03-19T02:23:48.568Z,12.05
2023-03-19T02:26:17.539Z,11.43
2023-03-19T02:28:45.703Z,11.10
2023-03-19T02:31:13.655Z,11.30
2023-03-19T02:33:37.098Z,12.27
2023-03-19T02:36:03.795Z,11.18
2023-03-19T02:38:27.825Z,11.13
2023-03-19T02:40:57.722Z,11.35
2023-03-19T02:43:22.360Z,12.00
2023-03-19T02:45:47.027Z,11.32
2023-03-19T02:48:09.806Z,10.95
2023-03-19T02:50:32.785Z,11.03
2023-03-19T02:52:55.782Z,10.77
2023-03-19T02:55:18.631Z,11.30
2023-03-19T02:57:41.523Z,10.73
2023-03-19T03:00:06.756Z,10.77
2023-03-19T03:02:29.547Z,10.63
2023-03-19T03:04:52.222Z,10.90
2023-03-19T03:07:14.814Z,11.75
2023-03-19T03:09:38.001Z,11.10
2023-03-19T03:12:01.193Z,10.95
2023-03-19T03:14:24.837Z,10.00
2023-03-19T03:16:47.786Z,10.32
2023-03-19T03:19:11.650Z,10.35
2023-03-19T03:21:35.766Z,9.80
2023-03-19T03:23:59.560Z,10.23
2023-03-19T03:26:22.597Z,10.50
2023-03-19T03:28:45.647Z,10.30
2023-03-19T03:31:09.770Z,10.07
2023-03-19T03:33:36.500Z,11.00
2023-03-19T03:35:59.261Z,10.40
2023-03-19T03:38:23.659Z,10.47
2023-03-19T03:40:51.525Z,9.80
2023-03-19T03:43:15.834Z,10.07
2023-03-19T03:45:38.536Z,9.82
2023-03-19T03:48:01.944Z,10.52
2023-03-19T03:50:25.770Z,10.23
2023-03-19T03:52:52.698Z,9.88
2023-03-19T03:55:15.619Z,9.77
2023-03-19T03:57:38.446Z,9.65
2023-03-19T04:00:01.364Z,9.73
2023-03-19T04:02:25.170Z,9.43
2023-03-19T04:04:48.898Z,9.45
2023-03-19T04:07:12.359Z,9.60
2023-03-19T04:09:38.384Z,9.85
2023-03-19T04:12:01.275Z,9.90
2023-03-19T04:14:24.255Z,9.37
2023-03-19T04:16:47.435Z,9.80
2023-03-19T04:19:10.382Z,9.52
2023-03-19T04:21:33.698Z,9.82
2023-03-19T04:23:56.543Z,9.30
2023-03-19T04:26:19.543Z,8.83
2023-03-19T04:28:42.306Z,9.38
2023-03-19T04:31:08.018Z,9.23
2023-03-19T04:33:35.658Z,9.10
2023-03-19T04:35:59.070Z,9.32
2023-03-19T04:38:22.764Z,9.03
2023-03-19T04:40:46.655Z,8.73
2023-03-19T04:43:09.702Z,9.20
2023-03-19T04:45:32.533Z,8.85
2023-03-19T04:47:56.430Z,9.38
2023-03-19T04:50:19.402Z,8.70
2023-03-19T04:52:42.719Z,9.02
2023-03-19T04:55:08.102Z,8.95
2023-03-19T04:57:42.890Z,9.00
2023-03-19T05:00:07.041Z,8.40
2023-03-19T05:02:33.640Z,8.13
2023-03-19T05:04:56.444Z,8.88
2023-03-19T05:07:22.339Z,8.75
2023-03-19T05:09:46.526Z,8.43
2023-03-19T05:12:12.487Z,8.20
2023-03-19T05:14:45.168Z,8.53
2023-03-19T05:17:20.951Z,8.40
2023-03-19T05:20:05.186Z,9.15
2023-03-19T05:22:30.228Z,8.45
2023-03-19T05:24:53.349Z,8.23
2023-03-19T05:27:21.392Z,8.47
2023-03-19T05:30:02.341Z,8.80
2023-03-19T05:32:40.881Z,8.35
2023-03-19T05:35:10.100Z,8.23
2023-03-19T05:37:34.127Z,8.50
2023-03-19T05:39:57.025Z,8.23
2023-03-19T05:42:20.045Z,8.68
2023-03-19T05:44:43.948Z,9.02
2023-03-19T05:47:16.341Z,8.50
2023-03-19T05:49:48.559Z,8.57
2023-03-19T05:52:12.166Z,8.50
2023-03-19T05:54:35.179Z,8.52
2023-03-19T05:57:26.695Z,8.40
2023-03-19T05:59:56.319Z,8.18
2023-03-19T06:02:28.307Z,8.50
2023-03-19T06:05:07.161Z,8.57
2023-03-19T06:07:29.810Z,8.40
2023-03-19T06:09:53.460Z,7.75
2023-03-19T06:12:16.547Z,8.20
2023-03-19T06:14:39.378Z,7.72
2023-03-19T06:17:34.131Z,8.50
2023-03-19T06:20:01.314Z,7.95
2023-03-19T06:22:24.172Z,7.90
2023-03-19T06:24:48.151Z,8.00
2023-03-19T06:27:11.320Z,8.70
2023-03-19T06:29:34.667Z,8.00
2023-03-19T06:32:10.053Z,8.27
2023-03-19T06:34:36.355Z,8.48
2023-03-19T06:36:59.006Z,8.23
2023-03-19T06:39:21.765Z,8.48
2023-03-19T06:41:44.504Z,8.70
2023-03-19T06:44:12.399Z,9.02
2023-03-19T06:46:35.174Z,9.25
2023-03-19T06:48:58.149Z,8.43
2023-03-19T06:51:21.251Z,8.25
2023-03-19T06:53:44.378Z,8.40
2023-03-19T06:56:07.271Z,8.50
2023-03-19T06:58:30.136Z,8.45
2023-03-19T07:00:57.195Z,8.43
2023-03-19T07:03:20.343Z,7.53
2023-03-19T07:05:43.251Z,6.93
2023-03-19T07:08:11.868Z,6.35
2023-03-19T07:10:35.229Z,6.53
2023-03-19T07:12:58.026Z,6.18
2023-03-19T07:15:23.991Z,5.65
2023-03-19T07:17:47.593Z,5.93
2023-03-19T07:20:11.196Z,5.53
2023-03-19T07:22:35.511Z,5.68
2023-03-19T07:24:58.223Z,5.65
2023-03-19T07:27:21.029Z,5.68
2023-03-19T07:29:44.072Z,5.80
2023-03-19T07:32:07.869Z,5.90
2023-03-19T07:34:30.806Z,5.32
2023-03-19T07:36:53.621Z,5.38
2023-03-19T07:39:16.693Z,5.80
2023-03-19T07:41:39.312Z,5.95
2023-03-19T07:44:04.828Z,5.43
2023-03-19T07:46:28.436Z,6.15
2023-03-19T07:48:51.371Z,5.90
2023-03-19T07:51:15.471Z,5.50
2023-03-19T07:53:38.417Z,5.40
2023-03-19T07:56:01.634Z,5.25
2023-03-19T07:58:24.367Z,5.78
2023-03-19T08:00:47.525Z,5.25
2023-03-19T08:03:10.230Z,5.28
2023-03-19T08:05:38.588Z,5.20
2023-03-19T08:08:01.344Z,6.10
2023-03-19T08:10:25.150Z,6.30
2023-03-19T08:12:48.971Z,5.40
2023-03-19T08:15:12.645Z,5.50
2023-03-19T08:17:38.517Z,5.10
2023-03-19T08:20:01.513Z,5.50
2023-03-19T08:22:24.188Z,5.50
2023-03-19T08:24:46.857Z,5.32
2023-03-19T08:27:10.148Z,4.75
2023-03-19T08:29:32.998Z,5.03
2023-03-19T08:31:56.793Z,4.95
2023-03-19T08:34:19.951Z,4.88
2023-03-19T08:36:42.692Z,5.13
2023-03-19T08:39:05.568Z,4.68
2023-03-19T08:41:28.318Z,4.88
2023-03-19T08:43:51.686Z,5.35
2023-03-19T08:46:14.343Z,4.85
2023-03-19T08:48:39.160Z,5.07
2023-03-19T08:51:04.465Z,4.75
2023-03-19T08:53:28.070Z,4.47
2023-03-19T08:55:55.634Z,4.55
2023-03-19T08:58:18.531Z,4.28
2023-03-19T09:00:41.188Z,4.53
2023-03-19T09:03:04.101Z,4.68
2023-03-19T09:05:29.665Z,4.87
2023-03-19T09:07:53.080Z,4.85
2023-03-19T09:10:15.991Z,4.03
2023-03-19T09:12:38.712Z,4.20
2023-03-19T09:15:01.621Z,4.68
2023-03-19T09:17:24.427Z,4.60
2023-03-19T09:19:47.584Z,4.38
2023-03-19T09:22:10.859Z,4.53
2023-03-19T09:24:33.846Z,4.82
2023-03-19T09:26:56.662Z,4.70
2023-03-19T09:29:19.663Z,4.37
2023-03-19T09:31:43.002Z,4.50
2023-03-19T09:34:07.367Z,4.30
2023-03-19T09:36:30.680Z,4.72
2023-03-19T09:38:53.467Z,4.50
2023-03-19T09:41:31.853Z,4.78
2023-03-19T09:44:02.049Z,4.78
2023-03-19T09:46:29.058Z,4.78
2023-03-19T09:48:58.305Z,4.72
2023-03-19T09:51:30.933Z,4.57
2023-03-19T09:53:59.477Z,4.90
2023-03-19T09:56:22.618Z,4.65
2023-03-19T09:58:45.943Z,4.82
2023-03-19T10:01:28.809Z,4.60
2023-03-19T10:04:14.851Z,4.43
2023-03-19T10:06:41.080Z,4.82
2023-03-19T10:09:42.306Z,4.70
2023-03-19T10:12:26.183Z,4.93
2023-03-19T10:15:14.923Z,4.30
2023-03-19T10:17:47.919Z,4.32
2023-03-19T10:20:31.513Z,4.95
2023-03-19T10:23:04.580Z,4.78
2023-03-19T10:25:29.743Z,5.05
2023-03-19T10:28:13.602Z,4.90
2023-03-19T10:30:40.784Z,4.60
2023-03-19T10:33:23.795Z,4.75
2023-03-19T10:35:50.016Z,4.18
2023-03-19T10:38:25.276Z,4.68
2023-03-19T10:41:11.271Z,4.90
2023-03-19T10:43:35.053Z,5.00
2023-03-19T10:45:58.449Z,4.60
2023-03-19T10:48:28.057Z,4.82
2023-03-19T10:51:00.685Z,4.53
2023-03-19T10:53:36.594Z,4.85
2023-03-19T10:56:20.590Z,4.68
2023-03-19T10:59:00.377Z,4.28
2023-03-19T11:01:34.093Z,4.57
2023-03-19T11:03:58.886Z,5.00
2023-03-19T11:06:31.278Z,4.80
2023-03-19T11:09:39.029Z,4.43
2023-03-19T11:12:25.730Z,4.43
2023-03-19T11:14:51.470Z,4.65
2023-03-19T11:17:24.036Z,4.50
2023-03-19T11:19:55.760Z,5.30
2023-03-19T11:22:44.600Z,4.65
2023-03-19T11:25:19.918Z,4.90
2023-03-19T11:27:43.637Z,4.90
2023-03-19T11:30:20.041Z,4.55
2023-03-19T11:33:27.128Z,4.28
2023-03-19T11:36:04.918Z,4.60
2023-03-19T11:39:16.093Z,4.57
2023-03-19T11:41:57.912Z,4.25
2023-03-19T11:44:23.876Z,4.35
2023-03-19T11:46:58.515Z,4.55
2023-03-19T11:49:42.666Z,4.57
2023-03-19T11:52:14.889Z,4.72
2023-03-19T11:54:59.268Z,4.22
2023-03-19T11:58:11.309Z,4.70
2023-03-19T12:00:53.186Z,4.80
2023-03-19T12:03:42.295Z,4.20
2023-03-19T12:06:35.805Z,4.07
2023-03-19T12:09:09.875Z,4.30
2023-03-19T12:11:58.614Z,4.50
2023-03-19T12:14:52.034Z,4.45
2023-03-19T12:17:30.334Z,4.47
2023-03-19T12:20:25.478Z,4.60
2023-03-19T12:23:12.007Z,4.60
2023-03-19T12:25:53.446Z,4.55
2023-03-19T12:28:32.091Z,4.20
2023-03-19T12:31:09.641Z,4.75
2023-03-19T12:34:02.870Z,4.25
2023-03-19T12:36:30.392Z,4.93
2023-03-19T12:38:59.484Z,4.45
2023-03-19T12:41:26.134Z,4.53
2023-03-19T12:44:01.268Z,4.85
2023-03-19T12:46:26.669Z,4.75
2023-03-19T12:48:54.258Z,4.18
2023-03-19T12:51:20.635Z,4.43
2023-03-19T12:53:55.253Z,4.30
2023-03-19T12:56:27.687Z,5.10
2023-03-19T12:59:13.333Z,4.25
2023-03-19T13:01:48.087Z,4.78
2023-03-19T13:04:20.947Z,4.47
2023-03-19T13:06:55.553Z,4.43
2023-03-19T13:09:33.852Z,4.43
2023-03-19T13:12:12.215Z,4.35
2023-03-19T13:14:39.152Z,4.43
2023-03-19T13:17:37.109Z,4.40
2023-03-19T13:20:20.455Z,4.38
2023-03-19T13:22:51.719Z,4.60
2023-03-19T13:25:17.851Z,4.25
2023-03-19T13:27:40.880Z,4.40
2023-03-19T13:30:09.606Z,4.30
2023-03-19T13:32:46.301Z,4.68
2023-03-19T13:35:13.326Z,4.60
2023-03-19T13:37:41.790Z,4.43
2023-03-19T13:40:06.458Z,4.53
2023-03-19T13:42:39.051Z,4.20
2023-03-19T13:45:38.870Z,4.32
2023-03-19T13:48:25.847Z,4.53
2023-03-19T13:51:03.047Z,4.82
2023-03-19T13:53:29.091Z,4.40
2023-03-19T13:55:54.737Z,4.78
2023-03-19T13:58:42.198Z,4.95
2023-03-19T14:01:09.388Z,5.20
2023-03-19T14:03:35.279Z,4.60
2023-03-19T14:05:59.862Z,5.18
2023-03-19T14:08:26.243Z,4.57
2023-03-19T14:10:52.700Z,4.70
2023-03-19T14:13:34.158Z,4.57
2023-03-19T14:16:04.896Z,4.18
2023-03-19T14:18:29.951Z,4.57
2023-03-19T14:21:07.108Z,4.35
2023-03-19T14:23:41.998Z,4.50
2023-03-19T14:26:32.061Z,4.68
2023-03-19T14:29:00.153Z,4.18
2023-03-19T14:31:30.299Z,4.45
2023-03-19T14:34:13.410Z,4.45
2023-03-19T14:36:41.842Z,4.05
2023-03-19T14:39:27.517Z,4.10
2023-03-19T14:42:20.252Z,4.85
2023-03-19T14:44:52.093Z,4.40
2023-03-19T14:47:37.406Z,4.15
2023-03-19T14:50:18.429Z,4.35
2023-03-19T14:52:58.525Z,4.57
2023-03-19T14:55:21.519Z,4.57
2023-03-19T14:57:44.683Z,4.90
2023-03-19T15:00:14.493Z,5.47
2023-03-19T15:02:42.087Z,4.57
2023-03-19T15:05:15.128Z,4.95
2023-03-19T15:07:43.729Z,4.57
2023-03-19T15:10:12.832Z,4.55
2023-03-19T15:12:38.503Z,4.40
2023-03-19T15:15:23.596Z,4.55
2023-03-19T15:17:54.444Z,5.53
2023-03-19T15:20:24.656Z,4.65
2023-03-19T15:23:00.704Z,4.15
2023-03-19T15:25:23.870Z,4.28
2023-03-19T15:27:47.002Z,3.80
2023-03-19T15:30:26.873Z,3.80
2023-03-19T15:33:04.561Z,4.20
2023-03-19T15:35:36.316Z,3.83
2023-03-19T15:38:02.493Z,4.50
2023-03-19T15:40:30.294Z,4.50
2023-03-19T15:42:54.161Z,4.50
2023-03-19T15:45:21.664Z,4.20
2023-03-19T15:47:57.859Z,4.22
2023-03-19T15:50:25.125Z,4.57
2023-03-19T15:52:57.802Z,4.57
2023-03-19T15:55:23.808Z,4.78
2023-03-19T15:57:47.887Z,7.00
2023-03-19T16:00:14.181Z,5.07
2023-03-19T16:02:41.695Z,4.82
2023-03-19T16:05:27.404Z,4.40
2023-03-19T16:08:00.537Z,4.43
2023-03-19T16:10:53.523Z,5.05
2023-03-19T16:13:28.301Z,4.50
2023-03-19T16:16:22.554Z,4.38
2023-03-19T16:18:57.022Z,4.30
2023-03-19T16:21:34.144Z,4.50
2023-03-19T16:24:28.171Z,4.20
2023-03-19T16:26:51.789Z,3.95
2023-03-19T16:29:19.620Z,4.85
2023-03-19T16:31:54.139Z,5.00
2023-03-19T16:34:34.893Z,4.60
2023-03-19T16:36:58.619Z,4.50
2023-03-19T16:39:32.941Z,4.95
2023-03-19T16:42:11.410Z,5.32
2023-03-19T16:44:34.984Z,5.90
2023-03-19T16:46:58.213Z,6.53
2023-03-19T16:49:21.611Z,7.07
2023-03-19T16:51:44.883Z,8.27
2023-03-19T16:54:10.598Z,7.55
2023-03-19T16:56:34.194Z,7.95
2023-03-19T16:58:57.972Z,9.65
2023-03-19T17:01:24.170Z,9.90
2023-03-19T17:03:48.256Z,9.23
2023-03-19T17:06:16.000Z,8.65
2023-03-19T17:08:40.022Z,8.50
2023-03-19T17:11:03.693Z,11.27
2023-03-19T17:13:30.281Z,12.13
2023-03-19T17:15:53.454Z,10.30
2023-03-19T17:18:20.502Z,10.20
2023-03-19T17:20:51.105Z,9.73
2023-03-19T17:23:14.796Z,10.80
2023-03-19T17:25:37.919Z,9.65
2023-03-19T17:28:01.804Z,6.95
2023-03-19T17:30:26.991Z,6.80
2023-03-19T17:32:51.851Z,6.47
2023-03-19T17:35:18.802Z,7.68
2023-03-19T17:37:42.344Z,8.15
2023-03-19T17:40:27.021Z,8.30
2023-03-19T17:42:51.592Z,9.50
2023-03-19T17:45:20.939Z,10.65
2023-03-19T17:47:53.598Z,12.18
2023-03-19T17:50:29.117Z,11.68
2023-03-19T17:52:55.231Z,11.57
2023-03-19T17:55:24.153Z,11.30
2023-03-19T17:57:47.342Z,12.10
2023-03-19T18:00:11.533Z,14.63
2023-03-19T18:02:36.280Z,16.13
2023-03-19T18:05:00.291Z,25.63
2023-03-19T18:07:23.999Z,20.63
2023-03-19T18:09:46.959Z,13.95
2023-03-19T18:12:10.311Z,14.32
2023-03-19T18:14:33.284Z,14.93
2023-03-19T18:16:56.339Z,16.75
2023-03-19T18:19:30.952Z,15.50
2023-03-19T18:21:54.137Z,16.95
2023-03-19T18:24:17.476Z,20.02
2023-03-19T18:26:41.016Z,21.02
2023-03-19T18:29:04.608Z,19.45
2023-03-19T18:31:30.433Z,20.95
2023-03-19T18:34:00.917Z,20.95
2023-03-19T18:36:27.565Z,20.67
2023-03-19T18:38:50.431Z,21.83
2023-03-19T18:41:20.793Z,22.50
2023-03-19T18:44:01.235Z,23.98
2023-03-19T18:46:30.578Z,24.13
2023-03-19T18:48:58.496Z,23.85
2023-03-19T18:51:21.533Z,23.88
2023-03-19T18:53:44.972Z,25.20
2023-03-19T18:56:21.488Z,23.42
2023-03-19T18:58:44.949Z,22.55
2023-03-19T19:01:14.396Z,21.85
2023-03-19T19:03:37.882Z,20.92
2023-03-19T19:06:01.514Z,20.83
2023-03-19T19:08:26.966Z,21.20
2023-03-19T19:10:56.305Z,21.02
2023-03-19T19:13:23.998Z,19.95
2023-03-19T19:15:48.423Z,20.42
2023-03-19T19:18:23.564Z,19.55
2023-03-19T19:20:49.535Z,18.50
2023-03-19T19:23:13.410Z,17.17
2023-03-19T19:25:38.652Z,17.25
2023-03-19T19:28:05.648Z,16.17
2023-03-19T19:30:29.359Z,14.45
2023-03-19T19:32:52.467Z,13.82
2023-03-19T19:35:24.389Z,14.85
2023-03-19T19:37:48.078Z,13.55
2023-03-19T19:40:17.330Z,13.95
2023-03-19T19:42:41.424Z,13.02
2023-03-19T19:45:05.712Z,12.95
2023-03-19T19:47:29.064Z,13.55
2023-03-19T19:49:52.327Z,13.98
2023-03-19T19:52:18.995Z,14.57
2023-03-19T19:54:42.116Z,15.80
2023-03-19T19:57:21.486Z,14.98
2023-03-19T19:59:46.053Z,16.10
2023-03-19T20:02:23.900Z,16.17
2023-03-19T20:04:47.710Z,17.30
2023-03-19T20:07:10.860Z,16.15
2023-03-19T20:09:34.084Z,16.08
2023-03-19T20:11:57.226Z,16.75
2023-03-19T20:14:20.886Z,16.10
2023-03-19T20:16:44.245Z,16.05
2023-03-19T20:19:09.957Z,16.15
2023-03-19T20:21:33.423Z,16.17
2023-03-19T20:23:59.136Z,16.15
2023-03-19T20:26:25.196Z,16.27
2023-03-19T20:28:48.932Z,16.63
2023-03-19T20:31:32.272Z,15.15
2023-03-19T20:33:57.361Z,13.45
2023-03-19T20:36:20.030Z,13.98
2023-03-19T20:38:43.478Z,14.82
2023-03-19T20:41:33.068Z,14.48
2023-03-19T20:43:56.712Z,14.90
2023-03-19T20:46:23.229Z,14.85
2023-03-19T20:48:46.828Z,14.38
2023-03-19T20:51:15.534Z,14.73
2023-03-19T20:53:38.283Z,15.55
2023-03-19T20:56:03.454Z,15.55
2023-03-19T20:58:30.232Z,15.05
2023-03-19T21:00:54.558Z,15.93
2023-03-19T21:03:20.614Z,15.48
2023-03-19T21:05:43.971Z,15.35
2023-03-19T21:08:14.776Z,15.77
2023-03-19T21:10:39.365Z,15.00
2023-03-19T21:13:02.788Z,15.80
2023-03-19T21:15:26.680Z,16.73
2023-03-19T21:17:50.770Z,17.02
2023-03-19T21:20:23.388Z,16.80
2023-03-19T21:22:50.742Z,18.17
2023-03-19T21:25:19.531Z,19.98
2023-03-19T21:27:46.837Z,20.13
2023-03-19T21:30:14.994Z,18.57
2023-03-19T21:32:38.153Z,19.92
2023-03-19T21:35:01.050Z,19.92
2023-03-19T21:37:25.624Z,19.83
2023-03-19T21:39:48.655Z,19.83
2023-03-19T21:42:22.887Z,18.35
2023-03-19T21:44:47.080Z,17.48
2023-03-19T21:47:14.718Z,18.05
2023-03-19T21:49:37.655Z,19.38
2023-03-19T21:52:00.811Z,19.38
2023-03-19T21:54:24.171Z,18.07
2023-03-19T21:56:47.289Z,18.77
2023-03-19T21:59:22.181Z,19.70
2023-03-19T22:01:44.925Z,20.20
2023-03-19T22:04:08.103Z,18.42
2023-03-19T22:06:30.906Z,18.48
2023-03-19T22:08:54.284Z,19.45
2023-03-19T22:11:23.205Z,18.92
2023-03-19T22:13:46.526Z,17.13
2023-03-19T22:16:21.076Z,18.77
2023-03-19T22:18:44.428Z,17.93
2023-03-19T22:21:13.589Z,17.95
2023-03-19T22:23:36.568Z,17.45
2023-03-19T22:25:59.279Z,17.98
2023-03-19T22:28:33.622Z,16.92
2023-03-19T22:31:04.146Z,17.13
2023-03-19T22:33:27.165Z,15.57
2023-03-19T22:35:50.909Z,15.90
2023-03-19T22:38:14.085Z,15.25
2023-03-19T22:40:41.236Z,13.75
2023-03-19T22:43:13.271Z,13.43
2023-03-19T22:45:36.603Z,13.20
2023-03-19T22:48:00.822Z,13.77
2023-03-19T22:50:27.281Z,12.88
2023-03-19T22:52:51.206Z,12.70
2023-03-19T22:55:14.372Z,11.80
2023-03-19T22:57:37.244Z,11.13
2023-03-19T23:00:00.004Z,11.88
2023-03-19T23:02:22.694Z,11.77
2023-03-19T23:04:45.806Z,11.70
2023-03-19T23:07:14.316Z,11.67
2023-03-19T23:09:37.800Z,11.13
2023-03-19T23:12:02.685Z,11.82
2023-03-19T23:14:30.069Z,12.15
2023-03-19T23:16:54.120Z,11.00
2023-03-19T23:19:23.644Z,11.23
2023-03-19T23:21:49.013Z,11.10
2023-03-19T23:24:13.344Z,11.18
2023-03-19T23:26:36.385Z,11.50
2023-03-19T23:29:03.773Z,11.68
2023-03-19T23:31:26.487Z,11.07
2023-03-19T23:33:49.250Z,11.35
2023-03-19T23:36:12.387Z,10.45
2023-03-19T23:38:35.391Z,10.30
2023-03-19T23:41:01.373Z,10.38
2023-03-19T23:43:27.695Z,10.33
2023-03-19T23:45:52.629Z,10.30
2023-03-19T23:48:20.851Z,10.27
2023-03-19T23:50:44.915Z,10.30
2023-03-19T23:53:18.748Z,10.15
2023-03-19T23:55:41.985Z,9.80
2023-03-19T23:58:04.984Z,10.20
